Time;durP1;ratioP1;P1;durP2;ratioP2;P2;SDS_P1;SDS_P2;PMS_P1;PMS_P2;Temp;Humidity;BMP_temperature;BMP_pressure;BME280_temperature;BME280_humidity;BME280_pressure;Samples;Min_cycle;Max_cycle;Signal;HPM_P1;HPM_P2
2023/08/31 00:04:27;;;;;;;6.40;5.80;;;16.30;99.90;;;15.09;100.00;99356.91;10266371;28;96875;-93
2023/08/31 00:09:30;;;;;;;5.40;4.78;;;16.30;99.90;;;15.06;100.00;99349.34;10278114;28;96642;-96
2023/08/31 00:14:34;;;;;;;7.05;5.28;;;16.30;99.90;;;15.04;100.00;99346.03;10266955;28;97185;-95
2023/08/31 00:19:38;;;;;;;6.28;5.15;;;16.30;99.90;;;15.00;100.00;99342.19;10278302;28;96946;-94
2023/08/31 00:24:42;;;;;;;7.05;5.63;;;16.30;99.90;;;14.98;100.00;99338.88;10275838;28;97476;-95
2023/08/31 00:29:49;;;;;;;6.53;5.90;;;16.30;99.90;;;14.96;100.00;99352.47;10244229;28;96522;-96
2023/08/31 00:34:53;;;;;;;5.95;5.35;;;16.20;99.90;;;14.98;100.00;99347.72;10294917;28;96947;-95
2023/08/31 00:39:56;;;;;;;5.28;4.68;;;16.20;99.90;;;14.94;100.00;99338.50;10280874;28;96798;-96
2023/08/31 00:45:00;;;;;;;4.68;4.18;;;16.20;99.90;;;15.00;100.00;99342.19;10264646;28;96885;-95
2023/08/31 00:50:07;;;;;;;4.88;4.38;;;16.20;99.90;;;14.99;100.00;99332.50;10263986;28;96746;-96
2023/08/31 00:55:11;;;;;;;5.68;4.47;;;16.20;99.90;;;14.99;100.00;99329.81;10267856;28;97005;-94
2023/08/31 01:00:16;;;;;;;5.15;4.65;;;16.20;99.90;;;15.02;100.00;99337.41;10264470;28;99318;-96
2023/08/31 01:05:49;;;;;;;6.60;4.30;;;16.20;99.90;;;15.02;100.00;99350.81;10289018;28;97840;-92
2023/08/31 01:11:05;;;;;;;4.75;3.85;;;16.30;99.90;;;15.01;100.00;99357.19;10256691;28;97349;-90
2023/08/31 01:16:09;;;;;;;4.85;3.80;;;16.20;99.90;;;15.02;100.00;99366.03;10287587;28;97320;-91
2023/08/31 01:21:30;;;;;;;3.50;3.20;;;16.20;99.90;;;15.03;100.00;99363.13;10261730;28;96608;-94
2023/08/31 01:26:34;;;;;;;3.22;2.92;;;16.20;99.90;;;15.04;100.00;99362.09;10267200;28;96954;-92
2023/08/31 01:31:45;;;;;;;2.60;2.40;;;16.30;99.90;;;15.09;100.00;99362.25;10265815;28;96848;-94
2023/08/31 01:36:56;;;;;;;;;;;16.30;99.90;;;15.03;100.00;99349.75;10288043;28;96653;-93
2023/08/31 01:42:05;;;;;;;2.42;2.22;;;16.30;99.90;;;15.14;100.00;99367.78;10264209;28;98071;-92
2023/08/31 01:47:13;;;;;;;2.95;2.65;;;16.40;99.90;;;15.12;100.00;99364.53;10265447;28;98335;-91
2023/08/31 01:52:16;;;;;;;4.15;2.60;;;16.40;99.90;;;15.20;100.00;99380.31;10270252;28;96704;-92
2023/08/31 01:57:22;;;;;;;2.88;2.53;;;16.40;99.90;;;15.24;100.00;99381.50;10252998;28;97348;-91
2023/08/31 02:02:26;;;;;;;3.63;2.70;;;16.50;99.90;;;15.29;100.00;99374.66;10285834;28;96871;-91
2023/08/31 02:07:30;;;;;;;4.65;2.80;;;16.50;99.90;;;15.35;100.00;99373.78;10269820;28;97880;-89
2023/08/31 02:12:35;;;;;;;2.65;2.40;;;16.60;99.90;;;15.39;100.00;99377.69;10252518;28;98473;-90
2023/08/31 02:17:40;;;;;;;2.60;2.28;;;16.60;99.90;;;15.42;100.00;99382.59;10264694;28;97379;-88
2023/08/31 02:22:44;;;;;;;2.53;2.30;;;16.70;99.90;;;15.40;100.00;99373.97;10283345;28;97283;-90
2023/08/31 02:27:51;;;;;;;2.30;2.10;;;16.70;99.90;;;15.38;100.00;99382.22;10282953;28;96703;-90
2023/08/31 02:32:56;;;;;;;2.50;2.10;;;16.70;99.90;;;15.35;100.00;99381.81;10289230;28;96707;-90
2023/08/31 02:37:59;;;;;;;4.63;2.80;;;16.60;99.90;;;15.34;100.00;99390.91;10263739;28;98278;-90
2023/08/31 02:43:03;;;;;;;3.20;2.53;;;16.60;99.90;;;15.32;100.00;99409.84;10270739;28;96961;-91
2023/08/31 02:48:10;;;;;;;3.00;2.70;;;16.60;99.90;;;15.29;100.00;99404.09;10271742;28;96687;-91
2023/08/31 02:53:14;;;;;;;3.05;2.35;;;16.50;99.90;;;15.26;100.00;99408.88;10273846;28;96670;-91
2023/08/31 02:58:19;;;;;;;2.47;2.28;;;16.50;99.90;;;15.24;100.00;99405.59;10276579;28;96974;-91
2023/08/31 03:03:22;;;;;;;4.05;2.55;;;16.50;99.90;;;15.15;100.00;99390.84;10295104;28;96839;-90
2023/08/31 03:08:26;;;;;;;2.70;2.50;;;16.50;99.90;;;15.12;100.00;99399.31;10276867;28;97382;-92
2023/08/31 03:13:31;;;;;;;3.20;2.72;;;16.40;99.90;;;15.14;100.00;99410.59;10275562;28;97397;-91
2023/08/31 03:18:35;;;;;;;2.60;2.40;;;16.40;99.90;;;15.10;100.00;99401.34;10277506;28;96669;-90
2023/08/31 03:23:39;;;;;;;3.38;2.60;;;16.40;99.90;;;15.06;100.00;99396.69;10277554;28;96493;-90
2023/08/31 03:28:46;;;;;;;4.00;2.50;;;16.30;99.90;;;15.04;100.00;99404.09;10279735;28;96737;-89
2023/08/31 03:33:50;;;;;;;3.17;2.50;;;16.30;99.90;;;14.98;100.00;99405.75;10274371;28;96619;-89
2023/08/31 03:38:54;;;;;;;2.67;2.30;;;16.20;99.90;;;14.93;100.00;99416.28;10276126;28;96713;-89
2023/08/31 03:43:58;;;;;;;2.50;2.25;;;16.20;99.90;;;14.85;100.00;99417.38;10237291;28;96769;-89
2023/08/31 03:49:02;;;;;;;2.78;2.58;;;16.20;99.90;;;14.80;100.00;99427.88;10278581;28;96637;-89
2023/08/31 03:54:06;;;;;;;2.70;2.50;;;16.10;99.90;;;14.70;100.00;99423.03;10274667;28;98231;-91
2023/08/31 03:59:09;;;;;;;2.50;2.30;;;16.00;99.90;;;14.77;100.00;99435.53;10292941;28;96698;-91
2023/08/31 04:04:13;;;;;;;2.90;2.25;;;16.00;99.90;;;14.76;100.00;99434.72;10291547;28;96642;-89
2023/08/31 04:09:17;;;;;;;2.45;2.00;;;16.00;99.90;;;14.82;100.00;99430.38;10272311;28;97376;-88
2023/08/31 04:14:20;;;;;;;3.00;2.00;;;16.10;99.90;;;14.90;100.00;99424.75;10294060;28;97235;-89
2023/08/31 04:19:24;;;;;;;1.83;1.63;;;16.20;99.90;;;14.98;100.00;99432.53;10279076;28;96887;-95
2023/08/31 04:24:28;;;;;;;3.03;1.90;;;16.30;99.90;;;15.03;100.00;99437.22;10261702;28;97274;-95
2023/08/31 04:29:31;;;;;;;3.35;2.22;;;16.40;99.90;;;14.99;100.00;99453.72;10252682;28;97757;-92
2023/08/31 04:34:35;;;;;;;3.50;2.10;;;16.30;99.90;;;15.02;100.00;99459.69;10258576;28;97157;-95
2023/08/31 04:39:39;;;;;;;2.17;1.95;;;16.30;99.90;;;15.10;100.00;99470.94;10274835;28;98444;-92
2023/08/31 04:44:43;;;;;;;2.33;1.80;;;16.40;99.90;;;15.13;100.00;99467.84;10267707;28;96787;-92
2023/08/31 04:49:47;;;;;;;1.85;1.60;;;16.40;99.90;;;15.27;100.00;99487.31;10274999;28;98271;-91
2023/08/31 04:54:50;;;;;;;2.22;1.60;;;16.50;99.90;;;15.35;100.00;99483.53;10274683;28;98408;-95
2023/08/31 04:59:54;;;;;;;2.75;1.88;;;16.60;99.90;;;15.37;99.37;99484.16;10261914;28;96564;-92
2023/08/31 05:04:57;;;;;;;2.38;1.58;;;16.70;99.90;;;15.48;97.91;99499.53;10253331;28;97232;-89
2023/08/31 05:10:01;;;;;;;1.98;1.52;;;16.70;99.90;;;15.51;96.16;99494.56;10273114;28;97602;-92
2023/08/31 05:15:06;;;;;;;2.45;1.83;;;16.80;99.90;;;15.63;95.39;99510.78;10268054;28;97500;-88
2023/08/31 05:20:10;;;;;;;2.75;2.00;;;16.90;99.90;;;15.68;94.65;99532.38;10273991;28;96986;-88
2023/08/31 05:25:14;;;;;;;3.35;1.80;;;16.90;99.90;;;15.72;94.51;99524.75;10266600;28;97689;-88
2023/08/31 05:30:17;;;;;;;2.15;1.60;;;17.00;99.90;;;15.73;94.22;99532.56;10259474;28;98414;-90
2023/08/31 05:35:22;;;;;;;2.53;1.90;;;17.10;99.90;;;15.86;94.74;99538.84;10270786;28;98643;-90
2023/08/31 05:40:25;;;;;;;2.78;2.10;;;17.20;99.90;;;15.91;94.56;99536.34;10293067;28;96589;-91
2023/08/31 05:45:35;;;;;;;2.05;1.77;;;17.20;99.90;;;15.98;93.99;99542.47;10298821;28;96591;-90
2023/08/31 05:50:39;;;;;;;2.17;1.70;;;17.30;99.90;;;16.09;93.70;99548.97;10302052;28;96631;-89
2023/08/31 05:55:42;;;;;;;2.70;2.00;;;17.40;99.90;;;16.17;93.07;99549.50;10312666;28;96710;-92
2023/08/31 06:00:47;;;;;;;3.55;1.90;;;17.40;99.90;;;16.35;92.62;99564.81;10276486;28;96542;-91
2023/08/31 06:05:52;;;;;;;3.20;2.15;;;17.60;99.90;;;16.49;90.63;99560.13;10275275;28;96669;-93
2023/08/31 06:10:56;;;;;;;3.97;2.67;;;17.70;99.90;;;16.64;89.98;99560.59;10282989;28;96529;-92
2023/08/31 06:15:59;;;;;;;2.33;1.85;;;17.90;99.90;;;16.75;88.79;99557.22;10279545;28;96509;-91
2023/08/31 06:21:03;;;;;;;2.95;1.70;;;18.00;99.90;;;16.89;87.29;99570.47;10245872;28;96533;-92
2023/08/31 06:26:07;;;;;;;2.53;1.88;;;18.20;99.90;;;16.99;86.65;99578.81;10261834;28;96502;-91
2023/08/31 06:31:10;;;;;;;2.58;1.80;;;18.30;99.90;;;17.09;86.01;99582.63;10270237;28;97307;-91
2023/08/31 06:36:15;;;;;;;2.97;1.73;;;18.40;99.90;;;17.17;85.75;99581.50;10252113;28;97207;-93
2023/08/31 06:41:19;;;;;;;2.92;1.80;;;18.50;99.90;;;17.18;84.72;99577.75;10272445;28;97372;-93
2023/08/31 06:46:23;;;;;;;3.20;1.50;;;18.50;99.90;;;17.27;84.76;99589.84;10272582;28;98606;-92
2023/08/31 06:51:27;;;;;;;3.05;1.60;;;18.60;99.90;;;17.35;83.91;99594.06;10235715;28;96521;-91
2023/08/31 06:56:34;;;;;;;1.70;1.48;;;18.60;99.90;;;17.50;84.73;99585.59;10257548;28;96669;-94
2023/08/31 07:01:38;;;;;;;1.88;1.50;;;18.70;99.90;;;17.70;83.06;99596.06;10288380;28;96842;-93
2023/08/31 07:06:42;;;;;;;2.50;1.55;;;19.00;99.90;;;17.87;81.31;99580.94;10255385;28;96834;-90
2023/08/31 07:11:46;;;;;;;2.00;1.50;;;19.10;99.90;;;17.99;80.09;99595.22;10272803;28;96935;-93
2023/08/31 07:16:50;;;;;;;3.25;1.52;;;19.20;99.90;;;18.05;80.14;99596.16;10266750;28;96909;-95
2023/08/31 07:21:57;;;;;;;2.45;1.58;;;19.30;99.90;;;18.07;77.80;99607.53;10260599;28;97250;-92
2023/08/31 07:27:05;;;;;;;1.77;1.23;;;19.40;99.40;;;18.14;76.15;99613.63;10274191;28;97860;-94
2023/08/31 07:32:09;;;;;;;2.13;1.60;;;19.40;98.70;;;18.21;75.34;99619.72;10260713;28;96469;-94
2023/08/31 07:37:12;;;;;;;1.52;1.33;;;19.40;98.50;;;18.39;77.87;99610.72;10237121;28;96431;-96
2023/08/31 07:42:16;;;;;;;2.65;1.60;;;19.60;99.10;;;18.55;76.24;99620.78;10242235;28;97423;-93
2023/08/31 07:47:20;;;;;;;2.15;1.38;;;19.80;98.60;;;18.64;76.25;99605.09;10266217;28;98163;-96
2023/08/31 07:52:24;;;;;;;2.60;1.63;;;19.90;98.60;;;18.78;75.95;99617.31;10285024;28;96548;-96
2023/08/31 07:57:27;;;;;;;2.00;1.55;;;20.00;98.40;;;18.89;74.35;99618.34;10255924;28;96662;-96
2023/08/31 08:02:31;;;;;;;2.90;1.60;;;20.10;98.00;;;18.98;72.60;99619.63;10294808;28;96719;-96
2023/08/31 08:07:35;;;;;;;2.45;1.60;;;20.20;97.20;;;19.11;70.70;99626.63;10282175;28;96460;-95
2023/08/31 08:12:44;;;;;;;2.25;1.60;;;20.30;96.60;;;19.40;70.50;99639.06;10277778;28;96690;-95
2023/08/31 08:17:48;;;;;;;2.37;1.63;;;20.50;96.40;;;19.78;70.57;99626.88;10273142;28;97162;-94
2023/08/31 08:22:52;;;;;;;2.72;1.80;;;20.90;96.30;;;20.11;69.17;99625.31;10257894;28;96726;-95
2023/08/31 08:27:55;;;;;;;2.58;1.80;;;21.30;96.00;;;20.52;66.56;99643.00;10268793;28;96951;-94
2023/08/31 08:33:00;;;;;;;2.83;1.52;;;21.70;94.70;;;20.69;64.03;99646.53;10296497;28;96630;-92
2023/08/31 08:38:06;;;;;;;2.42;1.70;;;21.90;93.50;;;20.76;62.67;99638.25;10298289;28;98335;-95
2023/08/31 08:43:11;;;;;;;2.13;1.50;;;22.00;92.90;;;20.91;62.81;99654.66;10283075;28;97040;-95
2023/08/31 08:48:16;;;;;;;1.63;1.20;;;22.10;92.70;;;20.88;61.30;99660.56;10296948;28;98232;-92
2023/08/31 08:53:19;;;;;;;2.13;1.25;;;22.10;91.90;;;20.74;61.34;99649.25;10277455;28;96711;-94
2023/08/31 08:58:23;;;;;;;2.03;1.48;;;22.00;91.90;;;20.62;60.24;99653.13;10254359;28;98184;-96
2023/08/31 09:03:27;;;;;;;1.60;1.23;;;21.80;91.30;;;20.55;60.86;99658.69;10267070;28;96978;-95
2023/08/31 09:08:30;;;;;;;1.60;1.05;;;21.70;91.30;;;20.58;61.17;99656.34;10288336;28;97133;-95
2023/08/31 09:13:34;;;;;;;1.92;1.05;;;21.80;91.50;;;20.62;58.74;99663.94;10275294;28;97330;-95
2023/08/31 09:18:37;;;;;;;2.50;1.20;;;21.80;90.40;;;20.65;58.81;99677.75;10267490;28;98570;-95
2023/08/31 09:23:41;;;;;;;1.40;1.10;;;21.80;90.30;;;20.72;59.37;99670.31;10277852;28;97153;-96
2023/08/31 09:28:46;;;;;;;1.27;1.02;;;22.00;90.50;;;20.92;59.73;99688.69;10251570;28;96895;-94
2023/08/31 09:33:51;;;;;;;2.10;1.10;;;22.10;90.70;;;21.05;58.83;99684.81;10279151;28;96975;-92
2023/08/31 09:38:59;;;;;;;1.80;1.10;;;22.20;90.20;;;21.21;58.23;99700.16;10290371;28;98241;-92
2023/08/31 09:44:17;;;;;;;1.25;0.93;;;22.40;89.90;;;21.21;56.49;99693.94;10277680;28;97431;-94
2023/08/31 09:49:21;;;;;;;1.65;0.90;;;22.40;86.00;;;21.11;56.67;99714.38;10266451;28;97166;-96
2023/08/31 09:54:29;;;;;;;1.55;1.10;;;22.30;87.90;;;21.02;57.86;99710.44;10276378;28;96628;-96
2023/08/31 09:59:34;;;;;;;1.75;1.17;;;22.20;88.70;;;21.00;58.99;99718.00;10276467;28;96869;-96
2023/08/31 10:04:38;;;;;;;1.55;1.08;;;22.20;89.90;;;21.23;61.47;99714.28;10264113;28;99158;-94
2023/08/31 10:09:43;;;;;;;3.15;1.52;;;22.30;90.80;;;21.24;62.44;99720.50;10270618;28;97186;-95
2023/08/31 10:14:49;;;;;;;2.35;1.80;;;22.40;91.30;;;21.14;63.76;99715.75;10293620;28;96685;-95
2023/08/31 10:19:55;;;;;;;5.38;1.92;;;22.40;91.80;;;21.05;65.20;99722.63;10267859;28;96813;-94
2023/08/31 10:25:05;;;;;;;2.20;1.83;;;22.30;92.30;;;20.90;65.34;99717.84;10255840;28;98386;-96
2023/08/31 10:30:21;;;;;;;2.38;1.85;;;22.10;92.40;;;20.82;65.78;99727.19;10266676;28;97019;-96
2023/08/31 10:35:47;;;;;;;2.78;1.77;;;22.00;92.60;;;20.74;66.74;99737.56;10285553;28;96506;-93
2023/08/31 10:41:07;;;;;;;2.20;1.60;;;21.90;93.00;;;20.73;67.01;99741.31;10274371;28;96697;-96
2023/08/31 10:46:28;;;;;;;1.90;1.33;;;21.90;93.00;;;20.72;66.94;99742.38;10288516;28;97922;-96
2023/08/31 10:51:32;;;;;;;1.70;1.20;;;21.90;93.10;;;20.83;66.56;99746.91;10285692;28;98443;-94
2023/08/31 10:57:07;;;;;;;2.65;1.27;;;22.00;93.00;;;20.89;62.64;99750.50;10248331;28;96629;-93
2023/08/31 11:02:29;;;;;;;4.40;1.48;;;22.10;91.10;;;20.95;62.90;99758.44;10256483;28;96596;-96
2023/08/31 11:07:35;;;;;;;4.25;1.40;;;22.10;91.20;;;21.07;61.98;99759.16;10276825;28;96928;-93
2023/08/31 11:12:43;;;;;;;5.10;2.00;;;22.20;91.00;;;21.13;61.71;99761.94;10283674;28;97915;-96
2023/08/31 11:17:52;;;;;;;2.20;1.63;;;22.30;91.00;;;21.23;61.84;99759.34;10260292;28;97025;-95
2023/08/31 11:22:56;;;;;;;2.83;1.40;;;22.40;90.90;;;21.30;61.60;99778.97;10269263;28;97075;-96
2023/08/31 11:28:09;;;;;;;2.85;1.23;;;22.50;90.80;;;21.33;61.26;99773.06;10280825;28;96831;-95
2023/08/31 11:33:14;;;;;;;2.60;1.40;;;22.50;90.70;;;21.41;60.40;99780.75;10282408;28;97066;-95
2023/08/31 11:38:20;;;;;;;2.28;1.60;;;22.60;90.30;;;21.50;59.85;99778.44;10316801;28;96550;-95
2023/08/31 11:43:24;;;;;;;2.67;1.50;;;22.60;90.00;;;21.66;59.61;99776.75;10278922;28;97409;-92
2023/08/31 11:48:27;;;;;;;6.15;1.40;;;22.80;89.60;;;21.76;59.13;99774.97;10296834;28;97012;-92
2023/08/31 11:53:31;;;;;;;2.25;1.50;;;22.90;89.30;;;21.86;58.28;99777.00;10323101;28;97049;-93
2023/08/31 11:58:42;;;;;;;2.90;1.50;;;23.00;88.60;;;22.26;58.60;99763.16;10262980;28;96941;-96
2023/08/31 12:04:11;;;;;;;1.53;1.07;;;23.40;89.20;;;22.85;56.90;99771.28;10281114;28;96566;-94
2023/08/31 12:09:15;;;;;;;1.23;1.00;;;23.90;87.70;;;23.29;53.35;99768.34;10279395;28;98313;-95
2023/08/31 12:14:27;;;;;;;2.40;1.35;;;24.40;84.70;;;23.54;49.92;99766.88;10264276;28;96816;-93
2023/08/31 12:19:32;;;;;;;1.40;1.17;;;24.70;80.00;;;23.36;47.71;99760.81;10268299;28;98702;-94
2023/08/31 12:24:40;;;;;;;1.65;1.20;;;24.60;76.90;;;23.06;48.83;99774.97;10273961;28;96626;-95
2023/08/31 12:29:44;;;;;;;1.60;1.00;;;24.30;77.80;;;23.01;49.84;99760.56;10276949;28;98502;-95
2023/08/31 12:34:47;;;;;;;1.27;0.95;;;24.20;78.20;;;23.36;50.07;99754.56;10254026;28;96731;-94
2023/08/31 12:39:51;;;;;;;1.52;1.00;;;24.50;78.70;;;23.63;49.54;99755.28;10275642;28;97178;-94
2023/08/31 12:44:55;;;;;;;1.10;0.90;;;24.80;77.70;;;23.89;48.49;99758.91;10262928;28;96602;-91
2023/08/31 12:49:58;;;;;;;1.38;1.02;;;25.00;76.50;;;24.05;48.31;99765.22;10279021;28;96705;-95
2023/08/31 12:55:04;;;;;;;1.20;1.00;;;25.10;76.20;;;24.05;47.08;99762.50;10259959;28;98273;-94
2023/08/31 13:00:13;;;;;;;2.35;1.00;;;25.20;75.40;;;23.82;46.19;99752.09;10275944;28;96675;-96
2023/08/31 13:05:17;;;;;;;1.63;1.00;;;25.00;73.40;;;23.73;46.09;99757.22;10262542;28;96780;-94
2023/08/31 13:10:21;;;;;;;2.67;0.98;;;24.90;73.40;;;23.72;47.24;99750.16;10243508;28;97449;-94
2023/08/31 13:15:25;;;;;;;1.23;0.80;;;24.80;74.10;;;23.74;46.31;99756.94;10267294;28;96669;-93
2023/08/31 13:20:30;;;;;;;1.58;1.23;;;24.80;73.10;;;23.68;46.24;99760.72;10237751;28;97306;-93
2023/08/31 13:25:35;;;;;;;2.47;1.27;;;24.80;72.30;;;23.70;46.53;99760.47;10275306;28;96833;-94
2023/08/31 13:30:39;;;;;;;5.70;1.13;;;24.90;72.50;;;23.79;47.08;99758.88;10253465;28;97747;-93
2023/08/31 13:35:43;;;;;;;2.33;1.08;;;24.90;72.80;;;23.83;46.98;99746.41;10246285;28;96691;-95
2023/08/31 13:40:48;;;;;;;2.25;1.30;;;25.00;72.80;;;23.77;46.36;99742.84;10260427;28;97317;-92
2023/08/31 13:45:52;;;;;;;3.83;1.35;;;24.90;72.20;;;23.97;46.40;99754.84;10243749;28;97166;-94
2023/08/31 13:50:55;;;;;;;3.78;1.50;;;25.00;72.20;;;24.15;45.27;99765.22;10244688;28;96848;-92
2023/08/31 13:55:59;;;;;;;2.17;1.45;;;25.20;71.10;;;24.19;43.96;99769.03;10255453;28;97669;-93
2023/08/31 14:01:03;;;;;;;1.48;1.10;;;25.30;69.30;;;24.08;44.21;99767.38;10251033;28;96863;-95
2023/08/31 14:06:08;;;;;;;1.20;1.00;;;25.20;68.90;;;24.07;44.04;99771.19;10288116;28;98286;-92
2023/08/31 14:11:12;;;;;;;1.42;1.10;;;25.20;69.10;;;24.11;43.98;99772.28;10270939;28;98234;-94
2023/08/31 14:16:16;;;;;;;1.98;1.20;;;25.30;68.90;;;24.14;44.54;99776.34;10232483;28;97315;-94
2023/08/31 14:21:20;;;;;;;1.40;1.08;;;25.30;68.90;;;24.16;44.31;99772.28;10256520;28;96800;-95
2023/08/31 14:26:25;;;;;;;3.40;1.25;;;25.40;68.50;;;24.38;44.56;99782.13;10269979;28;96792;-90
2023/08/31 14:31:29;;;;;;;1.65;1.23;;;25.60;68.60;;;24.56;43.47;99782.44;10248303;28;98464;-95
2023/08/31 14:36:32;;;;;;;1.25;0.95;;;25.90;67.90;;;24.88;43.26;99794.13;10268974;28;98772;-94
2023/08/31 14:41:36;;;;;;;1.25;1.05;;;26.30;66.90;;;25.24;42.82;99792.22;10271446;28;96661;-95
2023/08/31 14:46:39;;;;;;;1.10;0.90;;;26.90;66.30;;;25.39;42.33;99799.56;10269882;28;97173;-95
2023/08/31 14:51:44;;;;;;;1.05;0.95;;;27.10;65.40;;;25.56;41.90;99797.34;10268204;28;96836;-96
2023/08/31 14:56:47;;;;;;;1.08;0.85;;;27.20;64.90;;;25.47;41.43;99799.81;10274165;28;96730;-95
2023/08/31 15:01:51;;;;;;;1.40;1.10;;;27.10;64.40;;;25.70;41.54;99812.00;10277505;28;96684;-95
2023/08/31 15:06:55;;;;;;;1.73;1.10;;;27.20;64.70;;;25.86;41.23;99807.34;10274717;28;97221;-95
2023/08/31 15:11:59;;;;;;;2.22;1.30;;;27.40;64.10;;;25.91;40.98;99806.50;10268614;28;96663;-96
2023/08/31 15:17:03;;;;;;;1.80;1.00;;;27.30;63.40;;;26.12;41.15;99816.22;10289788;28;97116;-93
2023/08/31 15:22:07;;;;;;;5.85;2.35;;;27.50;63.60;;;26.04;40.37;99814.09;10293287;28;97739;-93
2023/08/31 15:27:10;;;;;;;4.85;1.65;;;27.50;62.80;;;25.85;41.20;99816.63;10294127;28;98209;-96
2023/08/31 15:32:15;;;;;;;2.22;1.23;;;27.30;63.30;;;25.57;41.38;99812.56;10267403;28;98432;-92
2023/08/31 15:37:20;;;;;;;3.50;1.30;;;27.00;63.00;;;25.62;41.25;99816.09;10287293;28;98200;-96
2023/08/31 15:42:26;;;;;;;1.45;1.02;;;27.00;63.20;;;25.60;40.07;99825.63;10261937;28;96752;-94
2023/08/31 15:47:30;;;;;;;2.15;1.15;;;26.90;62.70;;;25.45;40.57;99828.38;10238077;28;98032;-94
2023/08/31 15:52:33;;;;;;;1.83;1.00;;;26.70;62.50;;;25.07;41.20;99836.03;10274044;28;96860;-96
2023/08/31 15:57:37;;;;;;;2.22;1.05;;;26.30;62.50;;;24.68;41.86;99832.97;10282177;28;96573;-95
2023/08/31 16:02:41;;;;;;;1.80;0.90;;;25.90;63.00;;;24.38;42.36;99844.59;10262243;28;96798;-95
2023/08/31 16:07:44;;;;;;;2.45;1.45;;;25.50;63.60;;;23.82;42.83;99834.31;10292947;28;97926;-94
2023/08/31 16:12:48;;;;;;;1.38;1.13;;;25.00;64.10;;;23.55;43.36;99853.38;10290200;28;97928;-96
2023/08/31 16:17:53;;;;;;;1.92;1.25;;;24.60;64.60;;;23.27;44.57;99856.41;10294144;28;97883;-96
2023/08/31 16:22:57;;;;;;;2.63;1.05;;;24.30;65.90;;;23.02;45.28;99865.97;10242039;28;96656;-95
2023/08/31 16:28:03;;;;;;;1.30;0.90;;;24.10;66.60;;;22.74;46.10;99867.06;10274100;28;96732;-95
2023/08/31 16:33:07;;;;;;;1.05;0.95;;;23.80;67.60;;;22.54;46.01;99861.41;10258138;28;96886;-95
2023/08/31 16:38:10;;;;;;;1.52;0.93;;;23.60;67.90;;;22.33;46.73;99863.91;10257908;28;98323;-95
2023/08/31 16:43:17;;;;;;;1.98;0.95;;;23.40;68.20;;;22.15;47.23;99873.19;10273206;28;97426;-95
2023/08/31 16:48:20;;;;;;;1.13;0.73;;;23.20;68.60;;;21.94;47.47;99868.53;10276514;28;96676;-96
2023/08/31 16:53:24;;;;;;;1.55;0.85;;;23.10;68.90;;;21.77;47.83;99871.28;10257832;28;96635;-96
2023/08/31 16:58:27;;;;;;;2.40;0.80;;;22.90;69.20;;;21.61;48.54;99867.53;10270697;28;96536;-96
2023/08/31 17:03:31;;;;;;;5.57;1.00;;;22.70;69.90;;;21.40;49.71;99875.59;10289689;28;96892;-96
2023/08/31 17:08:35;;;;;;;1.40;0.90;;;22.60;70.80;;;21.13;50.48;99888.91;10281300;28;96563;-96
2023/08/31 17:13:39;;;;;;;2.38;1.38;;;22.40;71.50;;;20.92;51.51;99895.81;10293532;28;96961;-96
2023/08/31 17:18:42;;;;;;;1.48;0.90;;;22.20;72.20;;;20.72;51.96;99907.91;10294635;28;96757;-95
2023/08/31 17:23:46;;;;;;;2.40;0.95;;;22.00;72.80;;;20.42;53.15;99893.78;10323148;28;95854;-95
2023/08/31 17:28:50;;;;;;;1.55;0.93;;;21.70;73.50;;;20.18;53.88;99918.13;10324142;28;96583;-96
2023/08/31 17:33:54;;;;;;;1.70;1.10;;;21.50;74.30;;;19.87;55.80;99924.75;10269924;28;97450;-96
2023/08/31 17:38:57;;;;;;;4.10;1.20;;;21.30;75.30;;;19.57;56.46;99919.44;10296465;28;97982;-96
2023/08/31 17:44:02;;;;;;;2.17;1.15;;;21.00;76.20;;;19.37;57.95;99935.09;10261847;28;97123;-96
2023/08/31 17:49:05;;;;;;;1.45;0.88;;;20.70;77.10;;;19.09;59.03;99938.44;10244377;28;97041;-96
2023/08/31 17:54:09;;;;;;;1.30;0.80;;;20.50;78.20;;;18.97;59.69;99966.13;10260471;28;96881;-96
2023/08/31 17:59:17;;;;;;;1.35;0.80;;;20.30;78.90;;;18.83;60.15;99975.47;10295307;28;96595;-96
2023/08/31 18:04:21;;;;;;;1.35;1.00;;;20.10;79.60;;;18.73;60.60;99985.94;10305268;28;96496;-95
2023/08/31 18:09:29;;;;;;;1.25;0.88;;;20.00;80.30;;;18.61;61.21;99987.72;10291986;28;97731;-94
2023/08/31 18:14:34;;;;;;;1.33;0.80;;;19.80;80.60;;;18.49;61.51;99990.31;10272732;28;96725;-93
2023/08/31 18:19:40;;;;;;;1.80;1.08;;;19.70;81.00;;;18.40;61.61;99992.47;10267758;28;98410;-94
2023/08/31 18:24:44;;;;;;;1.90;1.30;;;19.60;81.10;;;18.33;61.68;100007.88;10269152;28;98456;-94
2023/08/31 18:29:48;;;;;;;1.15;0.80;;;19.50;81.20;;;18.28;61.71;100010.41;10264113;28;96895;-95
2023/08/31 18:34:53;;;;;;;1.60;0.98;;;19.50;81.50;;;18.26;62.17;100012.50;10264292;28;96692;-95
2023/08/31 18:39:57;;;;;;;2.80;1.02;;;19.40;81.70;;;18.14;63.42;100014.28;10250072;28;97424;-95
2023/08/31 18:45:01;;;;;;;3.55;1.30;;;19.30;82.50;;;17.99;64.24;100021.84;10273444;28;98243;-95
2023/08/31 18:50:07;;;;;;;1.58;1.00;;;19.20;83.50;;;17.81;65.61;100026.16;10268585;28;96736;-95
2023/08/31 18:55:13;;;;;;;2.38;1.05;;;19.00;84.20;;;17.67;65.86;100032.63;10287037;28;98366;-95
2023/08/31 19:00:19;;;;;;;1.90;0.95;;;18.80;84.90;;;17.57;67.23;100038.50;10268250;28;97249;-95
2023/08/31 19:05:23;;;;;;;1.92;1.10;;;18.70;85.70;;;17.48;67.49;100041.66;10283102;28;98369;-95
2023/08/31 19:10:27;;;;;;;4.97;1.42;;;18.60;86.10;;;17.41;68.27;100051.63;10289499;28;96600;-95
2023/08/31 19:15:30;;;;;;;1.73;1.20;;;18.50;86.60;;;17.35;68.26;100056.81;10285043;28;97878;-95
2023/08/31 19:20:35;;;;;;;1.80;1.13;;;18.50;86.70;;;17.33;68.98;100058.91;10285705;28;96632;-95
2023/08/31 19:25:39;;;;;;;3.03;1.35;;;18.50;87.10;;;17.29;69.78;100064.91;10288325;28;98370;-95
2023/08/31 19:30:43;;;;;;;2.00;1.30;;;18.50;87.80;;;17.21;69.71;100060.59;10269965;28;96733;-95
2023/08/31 19:35:47;;;;;;;2.75;1.15;;;18.40;87.90;;;17.12;69.90;100064.59;10266198;28;97373;-95
2023/08/31 19:41:01;;;;;;;2.35;1.13;;;18.40;88.20;;;17.14;70.69;100067.88;10251786;28;98606;-94
2023/08/31 19:46:10;;;;;;;2.55;1.30;;;18.40;88.70;;;17.06;70.89;100062.75;10299705;28;97849;-95
2023/08/31 19:51:14;;;;;;;1.17;0.95;;;18.30;89.00;;;17.08;70.59;100079.47;10279882;28;97892;-95
2023/08/31 19:56:18;;;;;;;1.25;0.90;;;18.40;89.00;;;17.04;70.86;100084.44;10264557;28;96675;-96
2023/08/31 20:01:22;;;;;;;1.60;1.13;;;18.30;89.10;;;16.99;71.45;100076.22;10255332;28;96656;-96
2023/08/31 20:06:26;;;;;;;1.52;1.10;;;18.30;89.60;;;16.92;72.13;100079.97;10259679;28;97254;-95
2023/08/31 20:11:30;;;;;;;2.08;1.10;;;18.20;90.00;;;16.88;72.32;100087.59;10256462;28;97208;-93
2023/08/31 20:16:34;;;;;;;1.58;1.20;;;18.10;90.10;;;16.90;72.15;100076.66;10281634;28;97156;-95
2023/08/31 20:21:39;;;;;;;3.63;1.05;;;18.10;90.10;;;16.97;71.74;100077.44;10295389;28;97421;-95
2023/08/31 20:26:43;;;;;;;2.50;1.02;;;18.20;90.00;;;17.04;71.18;100087.13;10286078;28;97358;-96
2023/08/31 20:31:47;;;;;;;1.60;1.25;;;18.20;89.80;;;17.06;71.34;100089.59;10276593;28;96693;-95
2023/08/31 20:36:52;;;;;;;1.95;1.20;;;18.30;90.10;;;16.99;72.04;100102.22;10267061;28;97568;-93
2023/08/31 20:42:03;;;;;;;2.95;1.13;;;18.30;90.40;;;16.80;72.45;100102.09;10249850;28;96385;-93
2023/08/31 20:47:08;;;;;;;1.77;1.10;;;18.10;90.50;;;16.71;72.00;100108.69;10265936;28;96628;-95
2023/08/31 20:52:13;;;;;;;1.65;1.10;;;18.00;90.50;;;16.68;71.88;100116.31;10266089;28;97168;-94
2023/08/31 20:57:17;;;;;;;2.85;1.00;;;17.90;90.60;;;16.59;72.02;100119.22;10259084;28;97090;-96
2023/08/31 21:02:20;;;;;;;1.98;1.02;;;17.80;90.60;;;16.50;72.66;100117.78;10268168;28;97375;-95
2023/08/31 21:07:26;;;;;;;1.80;1.00;;;17.70;90.70;;;16.42;72.91;100125.22;10276830;28;96709;-95